Time;durP1;ratioP1;P1;durP2;ratioP2;P2;SDS_P1;SDS_P2;PMS_P1;PMS_P2;Temp;Humidity;BMP_temperature;BMP_pressure;BME280_temperature;BME280_humidity;BME280_pressure;Samples;Min_cycle;Max_cycle;Signal;HPM_P1;HPM_P2
2022/02/16 00:01:20;;;;;;;2.72;1.83;;;19.70;48.50;;;;;;5092625;28;20073;-73
2022/02/16 00:03:46;;;;;;;2.35;1.70;;;19.00;47.80;;;;;;5073823;28;20055;-74
2022/02/16 00:06:12;;;;;;;3.28;1.90;;;19.30;48.50;;;;;;5074391;28;20423;-74
2022/02/16 00:08:38;;;;;;;3.20;1.85;;;20.30;48.60;;;;;;5078337;28;20032;-74
2022/02/16 00:11:04;;;;;;;3.17;1.75;;;19.10;48.20;;;;;;5072326;28;20499;-74
2022/02/16 00:13:30;;;;;;;3.17;1.88;;;18.20;47.70;;;;;;5086433;28;20024;-74
2022/02/16 00:15:56;;;;;;;3.08;2.00;;;19.40;48.50;;;;;;5092009;28;20107;-73
2022/02/16 00:18:22;;;;;;;2.72;2.00;;;20.20;48.70;;;;;;5074442;28;20067;-73
2022/02/16 00:20:47;;;;;;;2.92;1.88;;;19.60;48.30;;;;;;5092114;28;20017;-73
2022/02/16 00:23:13;;;;;;;2.40;1.75;;;17.50;47.40;;;;;;5092349;28;20036;-74
2022/02/16 00:25:39;;;;;;;4.07;2.30;;;18.50;48.00;;;;;;5092382;28;20099;-74
2022/02/16 00:28:05;;;;;;;3.30;2.05;;;19.60;48.40;;;;;;5092196;28;20499;-74
2022/02/16 00:30:31;;;;;;;2.47;1.65;;;23.70;50.60;;;;;;5073997;28;20060;-73
2022/02/16 00:32:57;;;;;;;4.30;2.22;;;23.40;50.50;;;;;;5092263;28;20383;-74
2022/02/16 00:35:22;;;;;;;2.70;1.77;;;19.40;48.70;;;;;;5091986;28;20032;-74
2022/02/16 00:37:48;;;;;;;2.45;1.90;;;18.20;47.80;;;;;;5092145;28;20024;-74
2022/02/16 00:40:14;;;;;;;4.05;2.00;;;19.40;48.30;;;;;;5092240;28;20024;-73
2022/02/16 00:42:40;;;;;;;3.15;2.00;;;19.50;48.20;;;;;;5079541;28;20028;-74
2022/02/16 00:45:06;;;;;;;3.25;1.85;;;18.20;47.80;;;;;;5076096;28;20488;-73
2022/02/16 00:47:35;;;;;;;4.22;2.45;;;23.70;50.30;;;;;;5076140;28;20479;-73
2022/02/16 00:50:01;;;;;;;2.60;1.80;;;18.60;46.50;;;;;;5075870;28;20105;-73
2022/02/16 00:52:27;;;;;;;2.85;1.55;;;19.50;48.30;;;;;;5075147;28;20098;-73
2022/02/16 00:54:52;;;;;;;3.10;2.10;;;22.90;49.90;;;;;;5075676;28;20029;-74
2022/02/16 00:57:18;;;;;;;2.33;1.80;;;17.50;47.00;;;;;;5076075;28;20032;-73
2022/02/16 00:59:44;;;;;;;2.30;1.50;;;18.60;47.50;;;;;;5075976;28;20020;-73
2022/02/16 01:02:10;;;;;;;2.38;1.52;;;23.50;49.80;;;;;;5074992;28;20426;-73
2022/02/16 01:04:36;;;;;;;2.95;1.85;;;17.10;46.70;;;;;;5075287;28;20051;-74
2022/02/16 01:07:04;;;;;;;3.45;1.83;;;18.20;47.20;;;;;;5076331;28;20059;-73
2022/02/16 01:09:30;;;;;;;2.15;1.70;;;18.60;47.40;;;;;;5096022;28;20016;-73
2022/02/16 01:11:56;;;;;;;3.40;1.90;;;23.70;49.90;;;;;;5075134;28;20024;-73
2022/02/16 01:14:22;;;;;;;3.13;1.98;;;20.00;48.20;;;;;;5075507;28;20070;-74
2022/02/16 01:16:47;;;;;;;2.58;1.58;;;18.50;47.50;;;;;;5075188;28;20036;-73
2022/02/16 01:19:13;;;;;;;2.72;1.60;;;18.30;47.40;;;;;;5075407;28;20029;-73
2022/02/16 01:21:39;;;;;;;2.17;1.33;;;19.60;48.00;;;;;;5074536;28;20020;-73
2022/02/16 01:24:05;;;;;;;2.47;1.40;;;20.10;48.40;;;;;;5075226;28;20051;-73
2022/02/16 01:26:31;;;;;;;2.40;1.38;;;17.50;46.90;;;;;;5074935;28;20024;-73
2022/02/16 01:28:57;;;;;;;2.17;1.33;;;23.40;50.00;;;;;;5075156;28;20021;-73
2022/02/16 01:31:22;;;;;;;3.53;1.42;;;23.60;50.20;;;;;;5056439;28;20036;-73
2022/02/16 01:33:48;;;;;;;3.00;1.70;;;19.20;47.90;;;;;;5074945;28;20126;-72
2022/02/16 01:36:14;;;;;;;2.88;1.60;;;18.20;47.50;;;;;;5075122;28;20090;-72
2022/02/16 01:38:40;;;;;;;2.28;1.40;;;19.40;48.00;;;;;;5056896;28;20399;-73
2022/02/16 01:41:06;;;;;;;2.20;1.52;;;20.20;48.50;;;;;;5075227;28;20036;-72
2022/02/16 01:43:31;;;;;;;2.10;1.40;;;20.40;48.60;;;;;;5093912;28;20020;-72
2022/02/16 01:45:57;;;;;;;1.77;1.05;;;19.70;48.30;;;;;;5094998;28;20028;-72
2022/02/16 01:48:23;;;;;;;2.08;1.33;;;18.80;47.90;;;;;;5095004;28;20028;-72
2022/02/16 01:50:49;;;;;;;1.98;1.50;;;18.80;47.90;;;;;;5094963;28;20035;-72
2022/02/16 01:53:15;;;;;;;1.92;1.20;;;23.00;50.00;;;;;;5094259;28;20043;-73
2022/02/16 01:55:41;;;;;;;2.20;1.50;;;23.80;50.60;;;;;;5094122;28;20028;-72
2022/02/16 01:58:09;;;;;;;2.63;1.42;;;23.50;50.40;;;;;;5095145;28;20043;-72
2022/02/16 02:00:35;;;;;;;1.83;1.10;;;17.90;47.00;;;;;;5094842;28;20031;-72
2022/02/16 02:03:00;;;;;;;1.67;1.27;;;20.30;48.90;;;;;;5094974;28;20016;-72
2022/02/16 02:05:26;;;;;;;2.60;1.40;;;19.00;48.20;;;;;;5094156;28;20056;-72
2022/02/16 02:07:52;;;;;;;2.42;1.25;;;23.90;50.60;;;;;;5086596;28;20078;-72
2022/02/16 02:10:18;;;;;;;1.90;1.25;;;18.20;47.70;;;;;;5074060;28;20032;-72
2022/02/16 02:12:45;;;;;;;2.33;1.30;;;18.00;47.70;;;;;;5082774;28;20112;-72
2022/02/16 02:15:11;;;;;;;1.75;1.20;;;22.70;50.30;;;;;;5094180;28;20028;-72
2022/02/16 02:17:37;;;;;;;2.17;1.42;;;22.80;50.00;;;;;;5076135;28;20017;-72
2022/02/16 02:20:03;;;;;;;2.47;1.30;;;20.70;49.30;;;;;;5094298;28;20023;-72
2022/02/16 02:22:29;;;;;;;1.50;1.00;;;19.30;48.30;;;;;;5094078;28;20020;-72
2022/02/16 02:24:55;;;;;;;1.95;1.10;;;19.40;48.60;;;;;;5076009;28;20096;-72
2022/02/16 02:27:21;;;;;;;2.17;1.13;;;20.30;49.00;;;;;;5094139;28;20494;-72
2022/02/16 02:29:47;;;;;;;1.95;1.30;;;23.70;50.80;;;;;;5094108;28;20375;-72
2022/02/16 02:32:16;;;;;;;1.90;1.05;;;18.30;48.10;;;;;;5093661;28;20058;-72
2022/02/16 02:34:42;;;;;;;2.15;1.25;;;23.30;49.30;;;;;;5075794;28;20024;-72
2022/02/16 02:37:08;;;;;;;1.65;1.10;;;20.80;49.30;;;;;;5094398;28;20035;-72
2022/02/16 02:39:34;;;;;;;2.15;1.20;;;18.40;48.10;;;;;;5094327;28;20028;-72
2022/02/16 02:41:59;;;;;;;2.88;1.40;;;17.90;47.90;;;;;;5068294;28;20368;-72
2022/02/16 02:44:25;;;;;;;2.72;1.25;;;20.10;49.20;;;;;;5073698;28;20035;-72
2022/02/16 02:46:53;;;;;;;1.95;1.08;;;17.90;47.90;;;;;;5055703;28;20020;-74
2022/02/16 02:49:19;;;;;;;2.33;1.48;;;23.20;50.60;;;;;;5073656;28;20049;-74
2022/02/16 02:51:45;;;;;;;1.58;0.93;;;22.60;50.30;;;;;;5073102;28;20020;-74
2022/02/16 02:54:11;;;;;;;4.20;1.48;;;18.90;48.40;;;;;;5073570;28;20398;-73
2022/02/16 02:56:37;;;;;;;2.08;1.10;;;18.00;47.90;;;;;;5055525;28;20025;-73
2022/02/16 02:59:02;;;;;;;2.10;1.20;;;20.80;49.40;;;;;;5073498;28;20036;-74
2022/02/16 03:01:28;;;;;;;2.30;1.20;;;19.40;48.70;;;;;;5073079;28;20020;-73
2022/02/16 03:03:54;;;;;;;1.30;0.98;;;23.70;50.90;;;;;;5073667;28;20086;-74
2022/02/16 03:06:19;;;;;;;2.33;1.23;;;20.20;49.10;;;;;;5072777;28;20075;-73
2022/02/16 03:08:45;;;;;;;2.10;1.13;;;19.00;48.60;;;;;;5087931;28;20070;-74
2022/02/16 03:11:16;;;;;;;2.28;1.40;;;23.50;50.90;;;;;;5093157;28;20032;-73
2022/02/16 03:13:42;;;;;;;1.55;1.02;;;24.20;51.20;;;;;;5076572;28;20478;-74
2022/02/16 03:16:08;;;;;;;2.80;1.33;;;18.10;48.10;;;;;;5072923;28;20036;-74
2022/02/16 03:18:33;;;;;;;2.40;1.20;;;18.80;48.50;;;;;;5072781;28;20024;-74
2022/02/16 03:20:59;;;;;;;2.42;1.20;;;19.50;48.90;;;;;;5073232;28;20494;-73
2022/02/16 03:23:25;;;;;;;3.15;1.30;;;17.50;47.80;;;;;;5072461;28;20047;-73
2022/02/16 03:25:50;;;;;;;1.90;1.08;;;19.50;48.90;;;;;;5072645;28;20486;-74
2022/02/16 03:28:16;;;;;;;2.42;1.23;;;17.40;47.80;;;;;;5072750;28;20032;-73
2022/02/16 03:30:42;;;;;;;1.75;1.10;;;23.30;50.80;;;;;;5072738;28;20040;-74
2022/02/16 03:33:08;;;;;;;2.85;1.08;;;17.50;47.90;;;;;;5072166;28;20066;-74
2022/02/16 03:35:34;;;;;;;1.85;1.20;;;17.60;47.90;;;;;;5072617;28;20021;-74
2022/02/16 03:38:00;;;;;;;1.48;0.90;;;24.00;51.20;;;;;;5072752;28;20445;-74
2022/02/16 03:40:26;;;;;;;1.92;1.05;;;18.70;48.40;;;;;;5073001;28;20021;-73
2022/02/16 03:42:52;;;;;;;1.55;1.00;;;22.80;50.60;;;;;;5086517;28;20115;-74
2022/02/16 03:45:18;;;;;;;2.60;1.08;;;23.70;51.20;;;;;;5092829;28;20024;-74
2022/02/16 03:47:45;;;;;;;2.10;1.08;;;17.50;47.80;;;;;;5093092;28;20046;-74
2022/02/16 03:50:11;;;;;;;2.15;1.20;;;20.30;49.50;;;;;;5092778;28;20032;-74
2022/02/16 03:52:37;;;;;;;2.08;0.90;;;24.00;51.30;;;;;;5092621;28;20166;-74
2022/02/16 03:55:03;;;;;;;2.42;1.25;;;19.80;49.10;;;;;;5092544;28;20076;-74
2022/02/16 03:57:29;;;;;;;1.58;1.02;;;19.00;48.70;;;;;;5092891;28;20036;-74
2022/02/16 03:59:55;;;;;;;2.60;1.05;;;23.10;50.70;;;;;;5092824;28;20022;-74
2022/02/16 04:02:21;;;;;;;2.17;0.90;;;19.70;49.20;;;;;;5092245;28;20030;-74
2022/02/16 04:04:46;;;;;;;2.30;1.00;;;20.00;49.30;;;;;;5092367;28;20040;-74
2022/02/16 04:07:12;;;;;;;2.40;1.13;;;20.00;49.30;;;;;;5072245;28;20024;-74
2022/02/16 04:09:38;;;;;;;2.22;1.33;;;19.20;49.20;;;;;;5072507;28;20032;-74
2022/02/16 04:12:04;;;;;;;1.70;1.00;;;18.70;48.60;;;;;;5074359;28;20487;-73
2022/02/16 04:14:30;;;;;;;2.97;1.08;;;20.70;50.10;;;;;;5092099;28;20036;-74
2022/02/16 04:16:56;;;;;;;2.03;0.88;;;19.90;49.30;;;;;;5092332;28;20028;-74
2022/02/16 04:19:22;;;;;;;2.33;1.30;;;20.20;49.40;;;;;;5097625;28;20016;-74
2022/02/16 04:21:47;;;;;;;1.88;0.90;;;24.00;51.30;;;;;;5098396;28;20437;-74
2022/02/16 04:24:13;;;;;;;1.73;1.15;;;18.10;48.60;;;;;;5099084;28;20028;-73
2022/02/16 04:26:39;;;;;;;3.72;1.00;;;23.40;51.00;;;;;;5099426;28;20495;-74
2022/02/16 04:29:04;;;;;;;1.17;0.85;;;20.70;49.80;;;;;;5099029;28;20024;-74
2022/02/16 04:31:30;;;;;;;1.90;1.13;;;19.40;49.30;;;;;;5098688;28;20444;-74
2022/02/16 04:33:56;;;;;;;4.93;1.17;;;19.70;49.50;;;;;;5099011;28;20028;-74
2022/02/16 04:36:27;;;;;;;2.05;1.10;;;23.80;51.40;;;;;;5099064;28;20482;-74
2022/02/16 04:38:57;;;;;;;1.80;1.00;;;23.90;51.40;;;;;;5098980;28;20028;-74
2022/02/16 04:41:23;;;;;;;3.42;1.33;;;20.30;48.30;;;;;;5097387;28;20108;-74
2022/02/16 04:43:49;;;;;;;1.67;0.90;;;17.50;48.00;;;;;;5078134;28;20114;-74
2022/02/16 04:46:16;;;;;;;4.03;1.23;;;20.40;49.50;;;;;;5078761;28;20513;-74
2022/02/16 04:48:42;;;;;;;1.98;1.00;;;20.00;49.30;;;;;;5078646;28;20061;-74
2022/02/16 04:51:08;;;;;;;4.15;1.20;;;22.70;50.40;;;;;;5078665;28;20107;-74
2022/02/16 04:53:34;;;;;;;1.65;0.80;;;19.20;48.80;;;;;;5077997;28;20531;-74
2022/02/16 04:56:00;;;;;;;2.05;1.10;;;18.50;48.70;;;;;;5078575;28;20028;-74
2022/02/16 04:58:26;;;;;;;2.25;1.10;;;19.90;48.90;;;;;;5078633;28;20052;-74
2022/02/16 05:00:52;;;;;;;3.58;1.15;;;19.30;48.70;;;;;;5078965;28;20078;-74
2022/02/16 05:03:18;;;;;;;2.22;0.82;;;22.90;50.70;;;;;;5077062;28;20498;-73
2022/02/16 05:05:44;;;;;;;1.92;1.00;;;19.50;49.10;;;;;;5089293;28;20124;-74
2022/02/16 05:08:09;;;;;;;1.20;0.77;;;17.70;48.10;;;;;;5098545;28;20044;-74
2022/02/16 05:10:35;;;;;;;2.67;1.17;;;17.20;47.70;;;;;;5099058;28;20540;-74
2022/02/16 05:13:01;;;;;;;2.53;1.10;;;19.80;49.10;;;;;;5083401;28;20056;-74
2022/02/16 05:15:27;;;;;;;2.00;0.80;;;23.30;51.00;;;;;;5078333;28;20024;-74
2022/02/16 05:17:52;;;;;;;1.77;0.80;;;22.70;50.50;;;;;;5078380;28;20699;-74
2022/02/16 05:20:18;;;;;;;2.58;0.93;;;17.70;48.00;;;;;;5083289;28;20501;-74
2022/02/16 05:22:44;;;;;;;1.50;0.95;;;19.60;49.30;;;;;;5098751;28;20047;-74
2022/02/16 05:25:10;;;;;;;1.42;0.90;;;23.20;51.00;;;;;;5098544;28;20061;-73
2022/02/16 05:27:36;;;;;;;3.78;1.40;;;19.10;48.80;;;;;;5098880;28;20386;-74
2022/02/16 05:30:03;;;;;;;1.33;0.82;;;20.20;49.40;;;;;;5095814;28;20055;-74
2022/02/16 05:32:28;;;;;;;1.77;0.80;;;19.10;48.40;;;;;;5094817;28;20028;-74
2022/02/16 05:34:54;;;;;;;1.10;0.85;;;19.90;49.10;;;;;;5076948;28;20054;-73
2022/02/16 05:37:20;;;;;;;1.33;0.93;;;19.60;49.00;;;;;;5090844;28;20017;-73
2022/02/16 05:39:46;;;;;;;1.85;0.95;;;23.90;51.20;;;;;;5074813;28;20028;-73
2022/02/16 05:42:11;;;;;;;2.05;0.90;;;19.50;49.00;;;;;;5082778;28;20020;-73
2022/02/16 05:44:37;;;;;;;1.40;0.82;;;18.50;48.50;;;;;;5095282;28;20017;-73
2022/02/16 05:47:03;;;;;;;1.80;0.95;;;17.70;47.90;;;;;;5095393;28;20038;-73
2022/02/16 05:49:29;;;;;;;3.30;1.10;;;22.50;50.60;;;;;;5095119;28;20027;-73
2022/02/16 05:51:54;;;;;;;1.95;0.90;;;19.30;49.00;;;;;;5076427;28;20024;-73
2022/02/16 05:54:20;;;;;;;2.08;0.80;;;18.40;48.60;;;;;;5094744;28;20024;-73
2022/02/16 05:56:46;;;;;;;1.75;1.02;;;23.50;51.20;;;;;;5095270;28;20509;-73
2022/02/16 05:59:12;;;;;;;2.08;1.27;;;18.50;48.70;;;;;;5094969;28;20023;-73
2022/02/16 06:01:39;;;;;;;2.53;1.05;;;19.70;49.50;;;;;;5094313;28;20016;-73
2022/02/16 06:04:05;;;;;;;1.95;0.80;;;18.40;48.10;;;;;;5076742;28;20031;-73
2022/02/16 06:06:30;;;;;;;1.63;1.10;;;22.80;50.80;;;;;;5094584;28;20048;-73
2022/02/16 06:08:56;;;;;;;2.53;1.10;;;23.40;51.10;;;;;;5059653;28;20057;-73
2022/02/16 06:11:22;;;;;;;2.30;0.70;;;18.90;48.80;;;;;;5077353;28;20020;-72
2022/02/16 06:13:47;;;;;;;3.50;0.90;;;19.20;49.40;;;;;;5094812;28;20117;-72
2022/02/16 06:16:13;;;;;;;1.85;0.90;;;19.60;49.10;;;;;;5094080;28;20040;-72
2022/02/16 06:18:39;;;;;;;2.42;0.90;;;23.30;51.20;;;;;;5094901;28;20016;-72
2022/02/16 06:21:05;;;;;;;1.95;1.00;;;19.50;49.10;;;;;;5094166;28;20479;-72
2022/02/16 06:23:30;;;;;;;2.35;1.08;;;19.70;49.40;;;;;;5093794;28;20020;-72
2022/02/16 06:25:56;;;;;;;1.10;0.63;;;19.40;49.20;;;;;;5093988;28;20049;-72
2022/02/16 06:28:22;;;;;;;2.35;1.20;;;19.70;49.40;;;;;;5094545;28;20043;-72
2022/02/16 06:30:48;;;;;;;1.95;0.80;;;18.10;48.40;;;;;;5094329;28;20376;-72
2022/02/16 06:33:14;;;;;;;2.97;0.80;;;19.20;49.00;;;;;;5094364;28;20028;-72
2022/02/16 06:35:39;;;;;;;2.90;0.77;;;18.80;48.70;;;;;;5093899;28;20090;-72
2022/02/16 06:38:06;;;;;;;1.70;0.70;;;20.10;49.60;;;;;;5094107;28;20024;-72
2022/02/16 06:40:35;;;;;;;2.22;1.10;;;23.10;50.90;;;;;;5075809;28;20032;-72
2022/02/16 06:43:00;;;;;;;1.63;0.90;;;19.80;47.90;;;;;;5078372;28;20020;-72
2022/02/16 06:45:26;;;;;;;3.05;1.10;;;19.50;48.90;;;;;;5073843;28;20051;-72
2022/02/16 06:47:52;;;;;;;3.67;1.42;;;23.00;50.90;;;;;;5055687;28;20020;-72
2022/02/16 06:50:18;;;;;;;1.38;0.82;;;19.50;48.90;;;;;;5073652;28;20029;-72
2022/02/16 06:52:44;;;;;;;2.30;1.13;;;17.10;47.70;;;;;;5055658;28;20027;-72
2022/02/16 06:55:10;;;;;;;1.70;0.90;;;19.10;48.50;;;;;;5073439;28;20107;-72
2022/02/16 06:57:36;;;;;;;2.30;0.98;;;20.40;49.20;;;;;;5055786;28;20027;-72
2022/02/16 07:00:03;;;;;;;1.85;0.80;;;19.90;48.90;;;;;;5073154;28;20056;-72
2022/02/16 07:02:28;;;;;;;2.92;0.90;;;18.60;48.20;;;;;;5073493;28;20027;-72
2022/02/16 07:04:54;;;;;;;1.83;0.98;;;23.20;50.60;;;;;;5072937;28;20052;-72
2022/02/16 07:07:20;;;;;;;2.08;0.98;;;23.00;50.50;;;;;;5076516;28;20513;-72
2022/02/16 07:09:46;;;;;;;1.85;0.90;;;19.30;48.60;;;;;;5093866;28;20020;-72
2022/02/16 07:12:12;;;;;;;2.17;1.00;;;19.90;48.90;;;;;;5082189;28;20025;-72
2022/02/16 07:14:37;;;;;;;1.90;1.00;;;17.40;47.50;;;;;;5055280;28;20024;-72
2022/02/16 07:17:04;;;;;;;1.70;0.80;;;19.60;48.70;;;;;;5073009;28;20035;-72
2022/02/16 07:19:30;;;;;;;1.48;0.90;;;20.00;48.80;;;;;;5073243;28;20056;-72
2022/02/16 07:21:57;;;;;;;1.17;0.80;;;17.80;47.80;;;;;;5072397;28;20051;-72
2022/02/16 07:24:24;;;;;;;2.72;0.77;;;23.70;50.90;;;;;;5073106;28;20017;-72
2022/02/16 07:26:50;;;;;;;2.20;1.10;;;23.60;50.60;;;;;;5072720;28;20052;-72
2022/02/16 07:29:16;;;;;;;1.83;0.70;;;18.00;47.90;;;;;;5072996;28;20029;-72
2022/02/16 07:31:42;;;;;;;2.10;0.85;;;23.30;50.60;;;;;;5072187;28;20111;-72
2022/02/16 07:34:08;;;;;;;1.50;0.65;;;18.90;48.50;;;;;;5054790;28;20166;-72
2022/02/16 07:36:34;;;;;;;1.33;0.70;;;23.70;50.90;;;;;;5072592;28;20028;-72
2022/02/16 07:39:01;;;;;;;1.05;0.68;;;20.10;49.10;;;;;;5072898;28;20077;-72
2022/02/16 07:41:27;;;;;;;1.80;0.77;;;23.50;50.80;;;;;;5074309;28;20032;-72
2022/02/16 07:43:53;;;;;;;1.92;0.80;;;23.80;51.00;;;;;;5092889;28;20109;-72
2022/02/16 07:46:19;;;;;;;2.60;0.60;;;17.70;48.10;;;;;;5092743;28;20062;-72
2022/02/16 07:48:45;;;;;;;1.60;0.73;;;23.40;50.90;;;;;;5093252;28;20027;-72
2022/02/16 07:51:11;;;;;;;1.73;1.00;;;24.10;51.20;;;;;;5074655;28;20034;-72
2022/02/16 07:53:38;;;;;;;1.80;1.13;;;18.90;48.40;;;;;;5091501;28;20024;-72
2022/02/16 07:56:05;;;;;;;1.70;0.60;;;22.70;50.60;;;;;;5083123;28;20108;-72
2022/02/16 07:58:31;;;;;;;1.73;0.80;;;18.30;47.90;;;;;;5051025;28;20021;-71
2022/02/16 08:00:57;;;;;;;1.02;0.57;;;23.60;51.10;;;;;;5052059;28;20104;-72
2022/02/16 08:03:23;;;;;;;1.88;0.88;;;19.80;49.20;;;;;;5055897;28;20034;-72
2022/02/16 08:05:48;;;;;;;1.13;0.70;;;19.90;49.30;;;;;;5064993;28;20052;-72
2022/02/16 08:08:14;;;;;;;2.45;0.85;;;18.10;48.40;;;;;;5074527;28;20267;-71
2022/02/16 08:10:40;;;;;;;1.75;0.60;;;18.20;48.20;;;;;;5066000;28;20111;-71
2022/02/16 08:13:06;;;;;;;0.50;0.43;;;23.70;51.10;;;;;;5084713;28;20027;-71
2022/02/16 08:15:32;;;;;;;1.02;0.63;;;20.60;50.00;;;;;;5061837;28;20032;-72
2022/02/16 08:17:58;;;;;;;1.27;0.77;;;22.80;50.40;;;;;;5058978;28;20332;-69
2022/02/16 08:20:24;;;;;;;1.38;0.80;;;18.50;49.00;;;;;;5057712;28;20047;-72
2022/02/16 08:22:50;;;;;;;1.55;0.68;;;23.90;51.10;;;;;;5052959;28;20021;-70
2022/02/16 08:25:18;;;;;;;0.80;0.63;;;18.50;48.50;;;;;;5046043;28;20379;-70
2022/02/16 08:27:45;;;;;;;2.35;0.63;;;18.50;48.60;;;;;;5058224;28;20025;-70
2022/02/16 08:30:12;;;;;;;1.55;0.60;;;20.10;49.50;;;;;;5046360;28;20041;-68
2022/02/16 08:32:39;;;;;;;1.50;0.60;;;17.90;47.90;;;;;;5047885;28;20029;-70
2022/02/16 08:35:06;;;;;;;1.23;0.60;;;20.20;49.40;;;;;;5067327;28;20103;-71
2022/02/16 08:37:33;;;;;;;1.00;0.60;;;23.80;50.80;;;;;;5065979;28;20024;-71
2022/02/16 08:39:59;;;;;;;0.88;0.50;;;20.90;49.80;;;;;;5048391;28;20090;-71
2022/02/16 08:42:25;;;;;;;0.95;0.50;;;20.00;49.30;;;;;;5074828;28;20503;-71
2022/02/16 08:44:51;;;;;;;1.35;0.50;;;18.60;48.70;;;;;;5045729;28;20021;-70
2022/02/16 08:47:17;;;;;;;2.63;0.75;;;22.40;51.00;;;;;;5058177;28;20028;-70
2022/02/16 08:49:44;;;;;;;1.65;0.60;;;17.90;48.30;;;;;;5049965;28;20029;-69
2022/02/16 08:52:11;;;;;;;3.65;0.80;;;18.70;49.10;;;;;;5045273;28;20053;-70
2022/02/16 08:54:37;;;;;;;1.50;0.60;;;23.60;51.10;;;;;;5045665;28;20629;-70
2022/02/16 08:57:04;;;;;;;2.50;0.60;;;19.20;49.80;;;;;;5044201;28;20045;-69
2022/02/16 08:59:30;;;;;;;0.75;0.40;;;20.30;49.20;;;;;;5045515;28;20466;-69
2022/02/16 09:01:57;;;;;;;0.93;0.50;;;17.60;47.80;;;;;;5029383;28;20032;-70
2022/02/16 09:04:22;;;;;;;2.80;0.93;;;23.00;50.70;;;;;;5045503;28;20040;-71
2022/02/16 09:09:38;;;;;;;2.08;0.80;;;19.30;48.80;;;;;;5057720;28;20708;-72
2022/02/16 09:12:05;;;;;;;2.08;0.82;;;20.10;49.20;;;;;;5064299;28;20013;-72
2022/02/16 09:14:31;;;;;;;0.85;0.50;;;18.70;48.30;;;;;;5067551;28;20363;-73
2022/02/16 09:16:57;;;;;;;3.28;0.52;;;19.40;49.20;;;;;;5068275;28;20024;-73
2022/02/16 09:19:23;;;;;;;2.17;0.73;;;17.80;48.40;;;;;;5066531;28;20028;-73
2022/02/16 09:21:49;;;;;;;0.82;0.60;;;20.30;49.80;;;;;;5060363;28;20025;-72
2022/02/16 09:24:15;;;;;;;3.92;0.50;;;20.50;49.70;;;;;;5050480;28;20037;-73
2022/02/16 09:26:41;;;;;;;1.73;0.65;;;19.50;49.20;;;;;;5031019;28;20087;-74
2022/02/16 09:29:06;;;;;;;2.08;0.40;;;23.40;51.30;;;;;;5049660;28;20029;-74
2022/02/16 09:31:32;;;;;;;0.75;0.40;;;17.40;48.30;;;;;;5058087;28;20169;-72
2022/02/16 09:33:58;;;;;;;1.67;0.45;;;20.20;49.80;;;;;;5058099;28;20411;-73
2022/02/16 09:36:24;;;;;;;0.95;0.50;;;19.80;49.80;;;;;;5048733;28;20424;-71
2022/02/16 09:38:49;;;;;;;0.85;0.43;;;19.60;49.90;;;;;;5033248;28;20029;-71
2022/02/16 09:41:16;;;;;;;1.25;0.60;;;19.70;49.80;;;;;;5059446;28;20028;-71
2022/02/16 09:43:46;;;;;;;0.95;0.60;;;17.60;48.10;;;;;;5078575;28;20100;-71
2022/02/16 09:46:11;;;;;;;1.33;0.43;;;20.30;49.00;;;;;;5036890;28;20057;-71
2022/02/16 09:48:40;;;;;;;2.15;0.70;;;20.20;49.80;;;;;;5048684;28;20063;-73
2022/02/16 09:51:06;;;;;;;0.80;0.40;;;20.30;49.50;;;;;;5048508;28;20060;-73
2022/02/16 09:53:32;;;;;;;0.57;0.38;;;19.90;50.40;;;;;;5057912;28;20063;-73
2022/02/16 09:55:59;;;;;;;1.38;0.63;;;23.50;51.50;;;;;;5067577;28;20503;-70
2022/02/16 09:58:25;;;;;;;1.10;0.50;;;20.30;50.10;;;;;;5064287;28;20641;-72
2022/02/16 10:01:12;;;;;;;0.95;0.30;;;22.70;51.70;;;;;;5050316;28;20021;-72
2022/02/16 10:03:39;;;;;;;1.02;0.70;;;19.80;47.30;;;;;;5048177;28;20060;-71
2022/02/16 10:06:05;;;;;;;1.38;0.70;;;19.00;49.10;;;;;;5047936;28;20393;-72
2022/02/16 10:08:45;;;;;;;2.35;1.05;;;19.60;49.60;;;;;;5064028;28;20987;-72
2022/02/16 10:11:13;;;;;;;4.28;1.10;;;19.60;48.00;;;;;;5061170;28;20503;-72
2022/02/16 10:13:40;;;;;;;1.90;0.60;;;19.80;50.20;;;;;;5071822;28;20054;-71
2022/02/16 10:16:06;;;;;;;1.17;0.68;;;24.10;51.80;;;;;;5068483;28;20105;-71
2022/02/16 10:18:32;;;;;;;1.92;0.60;;;19.60;49.60;;;;;;5049607;28;20035;-71
2022/02/16 10:21:06;;;;;;;1.10;0.65;;;23.10;51.50;;;;;;5046401;28;20021;-71
2022/02/16 10:23:43;;;;;;;0.68;0.60;;;20.00;48.10;;;;;;5048595;28;20073;-70
2022/02/16 10:26:09;;;;;;;2.05;0.80;;;20.00;47.80;;;;;;5029811;28;20025;-69
2022/02/16 10:28:44;;;;;;;0.65;0.57;;;22.80;51.40;;;;;;5046861;28;20407;-69
2022/02/16 10:31:11;;;;;;;2.22;0.52;;;20.00;48.10;;;;;;5047238;28;20029;-70
2022/02/16 10:33:41;;;;;;;1.83;0.70;;;19.90;49.90;;;;;;5047572;28;20040;-71
2022/02/16 10:36:11;;;;;;;2.05;0.60;;;20.00;48.70;;;;;;5058970;28;20565;-71
2022/02/16 10:38:58;;;;;;;1.23;0.63;;;22.80;51.00;;;;;;5049296;28;20526;-72
2022/02/16 10:41:30;;;;;;;1.70;0.80;;;22.00;48.40;;;;;;5050474;28;20116;-71
2022/02/16 10:43:57;;;;;;;1.58;0.98;;;19.80;48.60;;;;;;5064477;28;20021;-70
2022/02/16 10:46:28;;;;;;;1.95;0.52;;;19.40;49.70;;;;;;5037613;28;20037;-71
2022/02/16 10:49:16;;;;;;;1.33;0.85;;;19.90;48.70;;;;;;5048536;28;20060;-71
2022/02/16 10:51:43;;;;;;;2.10;0.90;;;19.90;47.40;;;;;;5030639;28;20470;-70
2022/02/16 10:54:17;;;;;;;1.50;0.75;;;18.00;48.70;;;;;;5054790;28;20398;-71
2022/02/16 10:56:45;;;;;;;2.08;0.93;;;18.90;48.30;;;;;;5066297;28;20107;-69
2022/02/16 10:59:12;;;;;;;2.97;0.82;;;19.40;49.60;;;;;;5046591;28;20482;-70
2022/02/16 11:01:39;;;;;;;1.08;0.60;;;20.30;50.20;;;;;;5047154;28;20029;-70
2022/02/16 11:04:08;;;;;;;1.77;0.68;;;19.60;49.80;;;;;;5047317;28;20025;-72
2022/02/16 11:06:42;;;;;;;1.70;0.90;;;19.60;49.00;;;;;;5047543;28;20084;-71
2022/02/16 11:09:15;;;;;;;1.40;0.70;;;18.10;48.90;;;;;;5072220;28;20039;-71
2022/02/16 11:11:41;;;;;;;1.15;0.73;;;20.20;49.00;;;;;;5049938;28;20561;-72
2022/02/16 11:14:09;;;;;;;2.60;0.85;;;17.10;48.70;;;;;;5046284;28;20469;-73
2022/02/16 11:16:36;;;;;;;1.40;0.60;;;19.30;49.50;;;;;;5048771;28;20119;-72
2022/02/16 11:19:38;;;;;;;1.27;0.57;;;19.50;49.70;;;;;;5085167;28;20941;-71
2022/02/16 11:22:06;;;;;;;2.00;0.85;;;19.60;47.50;;;;;;5057826;28;20174;-71
2022/02/16 11:24:43;;;;;;;1.42;0.70;;;19.30;49.90;;;;;;5063916;28;20036;-71
2022/02/16 11:27:31;;;;;;;1.05;0.68;;;19.90;48.00;;;;;;5062518;28;20020;-72
2022/02/16 11:30:00;;;;;;;1.48;0.73;;;19.80;47.50;;;;;;5066785;28;20390;-71
2022/02/16 11:32:29;;;;;;;1.05;0.63;;;19.70;49.50;;;;;;5055616;28;20028;-69
2022/02/16 11:35:16;;;;;;;1.85;0.98;;;22.40;51.60;;;;;;5064080;28;20047;-69
2022/02/16 11:37:43;;;;;;;1.38;0.63;;;19.60;47.50;;;;;;5046043;28;20049;-70
2022/02/16 11:40:10;;;;;;;2.15;0.98;;;24.30;52.30;;;;;;5046177;28;20056;-70
2022/02/16 11:42:54;;;;;;;1.10;0.80;;;19.70;50.20;;;;;;5056750;28;20642;-72
2022/02/16 11:45:39;;;;;;;1.27;0.77;;;19.90;48.00;;;;;;5039760;28;20442;-72
2022/02/16 11:48:07;;;;;;;1.30;0.70;;;19.60;49.70;;;;;;5054614;28;20089;-71
2022/02/16 11:50:36;;;;;;;3.03;1.00;;;18.80;49.60;;;;;;5055823;28;20545;-70
2022/02/16 11:53:11;;;;;;;1.85;1.17;;;18.60;49.10;;;;;;5048242;28;20025;-71
2022/02/16 11:55:43;;;;;;;3.25;0.73;;;20.90;49.00;;;;;;5049308;28;20509;-69
2022/02/16 11:58:21;;;;;;;1.60;0.82;;;18.70;48.80;;;;;;5036455;28;20027;-70
2022/02/16 12:00:55;;;;;;;0.98;0.70;;;19.80;48.10;;;;;;5049725;28;20047;-69
2022/02/16 12:03:27;;;;;;;1.10;0.93;;;19.70;48.60;;;;;;5049807;28;20523;-70
2022/02/16 12:06:12;;;;;;;1.60;0.90;;;19.60;48.90;;;;;;5064167;28;20132;-71
2022/02/16 12:08:51;;;;;;;1.42;0.80;;;19.60;47.90;;;;;;5078721;28;20131;-70
2022/02/16 12:11:30;;;;;;;2.22;0.98;;;19.90;48.20;;;;;;5065331;28;20111;-70
2022/02/16 12:14:01;;;;;;;1.30;0.90;;;19.60;48.40;;;;;;5064738;28;20029;-70
2022/02/16 12:16:42;;;;;;;1.05;0.80;;;23.10;52.00;;;;;;5064969;28;20674;-71
2022/02/16 12:19:10;;;;;;;1.58;0.98;;;20.40;48.50;;;;;;5046241;28;20021;-71
2022/02/16 12:21:40;;;;;;;1.95;0.80;;;19.10;49.80;;;;;;5052659;28;20021;-72
2022/02/16 12:24:11;;;;;;;5.78;1.25;;;18.10;50.00;;;;;;5055608;28;20033;-72
2022/02/16 12:26:57;;;;;;;2.58;0.98;;;19.60;49.90;;;;;;5066244;28;20098;-71
2022/02/16 12:29:25;;;;;;;6.95;1.20;;;20.10;49.60;;;;;;5048011;28;20025;-72
2022/02/16 12:31:55;;;;;;;6.18;1.23;;;19.60;51.60;;;;;;5064628;28;20021;-71
2022/02/16 12:34:30;;;;;;;8.98;1.35;;;18.40;51.20;;;;;;5047103;28;20094;-71
2022/02/16 12:37:08;;;;;;;8.15;1.40;;;19.30;50.70;;;;;;5026540;28;20033;-71
2022/02/16 12:39:35;;;;;;;6.75;1.30;;;20.20;50.90;;;;;;5046743;28;20044;-71
2022/02/16 12:42:03;;;;;;;9.95;1.50;;;22.80;54.40;;;;;;5066452;28;20103;-71
2022/02/16 12:44:31;;;;;;;3.05;1.30;;;20.30;53.40;;;;;;5076362;28;20021;-71
2022/02/16 12:46:57;;;;;;;8.40;1.45;;;19.60;52.90;;;;;;5068983;28;20032;-71
2022/02/16 12:49:25;;;;;;;8.50;1.35;;;19.20;53.60;;;;;;5058211;28;20037;-71
2022/02/16 12:51:53;;;;;;;2.85;1.10;;;19.40;52.50;;;;;;5063099;28;20711;-71